sensor_id;sensor_type;location;lat;lon;timestamp;P1;durP1;ratioP1;P2;durP2;ratioP2
55417;SDS011;41287;47.554;7.844;2023-09-07T00:01:44;4.43;;;3.30;;
55417;SDS011;41287;47.554;7.844;2023-09-07T00:04:10;3.90;;;2.92;;
55417;SDS011;41287;47.554;7.844;2023-09-07T00:06:38;6.55;;;3.40;;
55417;SDS011;41287;47.554;7.844;2023-09-07T00:09:06;4.50;;;3.00;;
55417;SDS011;41287;47.554;7.844;2023-09-07T00:11:31;3.57;;;3.10;;
55417;SDS011;41287;47.554;7.844;2023-09-07T00:13:57;3.88;;;2.72;;
55417;SDS011;41287;47.554;7.844;2023-09-07T00:16:24;4.93;;;3.40;;
55417;SDS011;41287;47.554;7.844;2023-09-07T00:18:49;5.78;;;3.22;;
55417;SDS011;41287;47.554;7.844;2023-09-07T00:21:15;4.63;;;3.08;;
55417;SDS011;41287;47.554;7.844;2023-09-07T00:23:40;4.00;;;3.10;;
55417;SDS011;41287;47.554;7.844;2023-09-07T00:26:06;3.92;;;2.95;;
55417;SDS011;41287;47.554;7.844;2023-09-07T00:28:31;4.82;;;3.55;;
55417;SDS011;41287;47.554;7.844;2023-09-07T00:30:56;4.72;;;3.00;;
55417;SDS011;41287;47.554;7.844;2023-09-07T00:33:21;4.55;;;3.28;;
55417;SDS011;41287;47.554;7.844;2023-09-07T00:35:49;4.85;;;2.92;;
55417;SDS011;41287;47.554;7.844;2023-09-07T00:38:14;5.32;;;3.25;;
55417;SDS011;41287;47.554;7.844;2023-09-07T00:40:42;4.70;;;3.20;;
55417;SDS011;41287;47.554;7.844;2023-09-07T00:43:09;4.80;;;3.25;;
55417;SDS011;41287;47.554;7.844;2023-09-07T00:45:34;5.75;;;3.80;;
55417;SDS011;41287;47.554;7.844;2023-09-07T00:48:00;4.60;;;3.20;;
55417;SDS011;41287;47.554;7.844;2023-09-07T00:50:25;4.85;;;3.25;;
55417;SDS011;41287;47.554;7.844;2023-09-07T00:52:52;4.85;;;3.42;;
55417;SDS011;41287;47.554;7.844;2023-09-07T00:55:18;5.25;;;3.42;;
55417;SDS011;41287;47.554;7.844;2023-09-07T00:57:43;4.55;;;3.20;;
55417;SDS011;41287;47.554;7.844;2023-09-07T01:00:09;5.28;;;3.08;;
55417;SDS011;41287;47.554;7.844;2023-09-07T01:02:34;3.92;;;2.88;;
55417;SDS011;41287;47.554;7.844;2023-09-07T01:05:01;4.47;;;2.97;;
55417;SDS011;41287;47.554;7.844;2023-09-07T01:07:32;4.05;;;3.13;;
55417;SDS011;41287;47.554;7.844;2023-09-07T01:10:02;3.90;;;3.00;;
55417;SDS011;41287;47.554;7.844;2023-09-07T01:12:31;4.13;;;2.92;;
55417;SDS011;41287;47.554;7.844;2023-09-07T01:14:56;4.78;;;3.20;;
55417;SDS011;41287;47.554;7.844;2023-09-07T01:17:23;4.82;;;3.50;;
55417;SDS011;41287;47.554;7.844;2023-09-07T01:19:49;4.68;;;3.22;;
55417;SDS011;41287;47.554;7.844;2023-09-07T01:22:16;4.28;;;3.28;;
55417;SDS011;41287;47.554;7.844;2023-09-07T01:24:44;5.10;;;3.33;;
55417;SDS011;41287;47.554;7.844;2023-09-07T01:27:10;5.20;;;3.13;;
55417;SDS011;41287;47.554;7.844;2023-09-07T01:29:38;4.93;;;3.53;;
55417;SDS011;41287;47.554;7.844;2023-09-07T01:32:03;5.43;;;3.58;;
55417;SDS011;41287;47.554;7.844;2023-09-07T01:34:29;4.45;;;3.30;;
55417;SDS011;41287;47.554;7.844;2023-09-07T01:36:55;4.97;;;3.30;;
55417;SDS011;41287;47.554;7.844;2023-09-07T01:39:20;4.47;;;3.00;;
55417;SDS011;41287;47.554;7.844;2023-09-07T01:41:45;4.93;;;3.67;;
55417;SDS011;41287;47.554;7.844;2023-09-07T01:44:13;5.13;;;3.75;;
55417;SDS011;41287;47.554;7.844;2023-09-07T01:46:38;5.03;;;3.53;;
55417;SDS011;41287;47.554;7.844;2023-09-07T01:49:03;6.32;;;3.60;;
55417;SDS011;41287;47.554;7.844;2023-09-07T01:51:29;6.32;;;3.35;;
55417;SDS011;41287;47.554;7.844;2023-09-07T01:53:56;6.35;;;3.38;;
55417;SDS011;41287;47.554;7.844;2023-09-07T01:56:25;7.10;;;4.20;;
55417;SDS011;41287;47.554;7.844;2023-09-07T01:58:50;7.50;;;4.30;;
55417;SDS011;41287;47.554;7.844;2023-09-07T02:01:23;6.60;;;4.32;;
55417;SDS011;41287;47.554;7.844;2023-09-07T02:03:49;8.52;;;4.38;;
55417;SDS011;41287;47.554;7.844;2023-09-07T02:06:14;7.30;;;4.53;;
55417;SDS011;41287;47.554;7.844;2023-09-07T02:08:40;5.53;;;3.70;;
55417;SDS011;41287;47.554;7.844;2023-09-07T02:11:05;6.03;;;3.97;;
55417;SDS011;41287;47.554;7.844;2023-09-07T02:13:31;7.85;;;4.97;;
55417;SDS011;41287;47.554;7.844;2023-09-07T02:15:56;7.97;;;4.05;;
55417;SDS011;41287;47.554;7.844;2023-09-07T02:18:22;8.15;;;4.22;;
55417;SDS011;41287;47.554;7.844;2023-09-07T02:20:47;8.00;;;4.47;;
55417;SDS011;41287;47.554;7.844;2023-09-07T02:23:12;7.18;;;4.40;;
55417;SDS011;41287;47.554;7.844;2023-09-07T02:25:38;7.15;;;4.40;;
55417;SDS011;41287;47.554;7.844;2023-09-07T02:28:03;8.90;;;4.38;;
55417;SDS011;41287;47.554;7.844;2023-09-07T02:30:28;7.82;;;4.35;;
55417;SDS011;41287;47.554;7.844;2023-09-07T02:33:00;8.93;;;4.70;;
55417;SDS011;41287;47.554;7.844;2023-09-07T02:35:25;8.35;;;4.63;;
55417;SDS011;41287;47.554;7.844;2023-09-07T02:37:50;8.63;;;4.73;;
55417;SDS011;41287;47.554;7.844;2023-09-07T02:40:16;6.80;;;4.32;;
55417;SDS011;41287;47.554;7.844;2023-09-07T02:42:41;7.28;;;4.68;;
55417;SDS011;41287;47.554;7.844;2023-09-07T02:45:10;8.45;;;4.30;;
55417;SDS011;41287;47.554;7.844;2023-09-07T02:47:36;7.00;;;4.38;;
55417;SDS011;41287;47.554;7.844;2023-09-07T02:50:01;8.67;;;4.40;;
55417;SDS011;41287;47.554;7.844;2023-09-07T02:52:27;8.82;;;4.10;;
55417;SDS011;41287;47.554;7.844;2023-09-07T02:54:56;10.35;;;4.85;;
55417;SDS011;41287;47.554;7.844;2023-09-07T02:57:21;8.13;;;4.63;;
55417;SDS011;41287;47.554;7.844;2023-09-07T02:59:47;6.85;;;4.50;;
55417;SDS011;41287;47.554;7.844;2023-09-07T03:02:12;7.30;;;4.28;;
55417;SDS011;41287;47.554;7.844;2023-09-07T03:04:37;9.77;;;4.53;;
55417;SDS011;41287;47.554;7.844;2023-09-07T03:07:03;8.48;;;4.68;;
55417;SDS011;41287;47.554;7.844;2023-09-07T03:09:28;7.53;;;4.05;;
55417;SDS011;41287;47.554;7.844;2023-09-07T03:11:53;9.98;;;4.57;;
55417;SDS011;41287;47.554;7.844;2023-09-07T03:14:19;7.82;;;4.68;;
55417;SDS011;41287;47.554;7.844;2023-09-07T03:16:44;7.78;;;4.68;;
55417;SDS011;41287;47.554;7.844;2023-09-07T03:19:10;6.78;;;4.57;;
55417;SDS011;41287;47.554;7.844;2023-09-07T03:21:35;5.47;;;4.18;;
55417;SDS011;41287;47.554;7.844;2023-09-07T03:24:00;7.15;;;4.28;;
55417;SDS011;41287;47.554;7.844;2023-09-07T03:26:26;8.50;;;4.20;;
55417;SDS011;41287;47.554;7.844;2023-09-07T03:28:51;9.70;;;4.95;;
55417;SDS011;41287;47.554;7.844;2023-09-07T03:31:20;8.82;;;4.75;;
55417;SDS011;41287;47.554;7.844;2023-09-07T03:33:45;11.38;;;5.10;;
55417;SDS011;41287;47.554;7.844;2023-09-07T03:36:10;7.72;;;4.65;;
55417;SDS011;41287;47.554;7.844;2023-09-07T03:38:39;9.43;;;4.68;;
55417;SDS011;41287;47.554;7.844;2023-09-07T03:41:07;10.55;;;4.70;;
55417;SDS011;41287;47.554;7.844;2023-09-07T03:43:32;6.20;;;4.18;;
55417;SDS011;41287;47.554;7.844;2023-09-07T03:45:57;8.38;;;4.20;;
55417;SDS011;41287;47.554;7.844;2023-09-07T03:48:23;7.45;;;4.68;;
55417;SDS011;41287;47.554;7.844;2023-09-07T03:50:49;6.70;;;4.30;;
55417;SDS011;41287;47.554;7.844;2023-09-07T03:53:14;6.22;;;3.83;;
55417;SDS011;41287;47.554;7.844;2023-09-07T03:55:43;7.00;;;4.77;;
55417;SDS011;41287;47.554;7.844;2023-09-07T03:58:10;7.22;;;4.53;;
55417;SDS011;41287;47.554;7.844;2023-09-07T04:00:41;7.82;;;4.15;;
55417;SDS011;41287;47.554;7.844;2023-09-07T04:03:07;5.97;;;4.25;;
55417;SDS011;41287;47.554;7.844;2023-09-07T04:05:33;8.25;;;4.60;;
55417;SDS011;41287;47.554;7.844;2023-09-07T04:07:58;6.78;;;4.57;;
55417;SDS011;41287;47.554;7.844;2023-09-07T04:10:25;9.55;;;4.50;;
55417;SDS011;41287;47.554;7.844;2023-09-07T04:12:51;9.52;;;4.93;;
55417;SDS011;41287;47.554;7.844;2023-09-07T04:15:16;10.45;;;4.38;;
55417;SDS011;41287;47.554;7.844;2023-09-07T04:17:41;7.35;;;4.43;;
55417;SDS011;41287;47.554;7.844;2023-09-07T04:20:07;8.40;;;4.07;;
55417;SDS011;41287;47.554;7.844;2023-09-07T04:22:34;5.78;;;3.75;;
55417;SDS011;41287;47.554;7.844;2023-09-07T04:25:00;4.75;;;3.70;;
55417;SDS011;41287;47.554;7.844;2023-09-07T04:27:25;6.73;;;3.97;;
55417;SDS011;41287;47.554;7.844;2023-09-07T04:29:51;6.78;;;4.05;;
55417;SDS011;41287;47.554;7.844;2023-09-07T04:32:16;6.05;;;4.05;;
55417;SDS011;41287;47.554;7.844;2023-09-07T04:34:42;6.88;;;4.18;;
55417;SDS011;41287;47.554;7.844;2023-09-07T04:37:07;6.43;;;4.10;;
55417;SDS011;41287;47.554;7.844;2023-09-07T04:39:32;7.50;;;4.50;;
55417;SDS011;41287;47.554;7.844;2023-09-07T04:41:58;8.32;;;4.40;;
55417;SDS011;41287;47.554;7.844;2023-09-07T04:44:23;7.57;;;4.25;;
55417;SDS011;41287;47.554;7.844;2023-09-07T04:46:48;8.15;;;4.90;;
55417;SDS011;41287;47.554;7.844;2023-09-07T04:49:15;5.95;;;4.00;;
55417;SDS011;41287;47.554;7.844;2023-09-07T04:51:40;6.40;;;4.25;;
55417;SDS011;41287;47.554;7.844;2023-09-07T04:54:06;8.35;;;4.35;;
55417;SDS011;41287;47.554;7.844;2023-09-07T04:56:31;6.85;;;4.43;;
55417;SDS011;41287;47.554;7.844;2023-09-07T04:58:56;5.82;;;4.00;;
55417;SDS011;41287;47.554;7.844;2023-09-07T05:01:22;8.80;;;4.53;;
55417;SDS011;41287;47.554;7.844;2023-09-07T05:03:49;6.72;;;4.15;;
55417;SDS011;41287;47.554;7.844;2023-09-07T05:06:16;8.82;;;4.80;;
55417;SDS011;41287;47.554;7.844;2023-09-07T05:08:41;9.48;;;4.28;;
55417;SDS011;41287;47.554;7.844;2023-09-07T05:11:06;7.75;;;4.32;;
55417;SDS011;41287;47.554;7.844;2023-09-07T05:13:32;10.45;;;4.55;;
55417;SDS011;41287;47.554;7.844;2023-09-07T05:15:58;10.27;;;4.35;;
55417;SDS011;41287;47.554;7.844;2023-09-07T05:18:29;10.80;;;4.03;;
55417;SDS011;41287;47.554;7.844;2023-09-07T05:20:55;7.40;;;4.43;;
55417;SDS011;41287;47.554;7.844;2023-09-07T05:23:21;7.13;;;4.07;;
55417;SDS011;41287;47.554;7.844;2023-09-07T05:25:47;6.75;;;4.57;;
55417;SDS011;41287;47.554;7.844;2023-09-07T05:28:21;6.55;;;4.03;;
55417;SDS011;41287;47.554;7.844;2023-09-07T05:30:47;8.68;;;4.32;;
55417;SDS011;41287;47.554;7.844;2023-09-07T05:33:14;8.05;;;4.32;;
55417;SDS011;41287;47.554;7.844;2023-09-07T05:35:40;8.07;;;4.57;;
55417;SDS011;41287;47.554;7.844;2023-09-07T05:38:10;6.50;;;4.18;;
55417;SDS011;41287;47.554;7.844;2023-09-07T05:40:36;6.65;;;4.20;;
55417;SDS011;41287;47.554;7.844;2023-09-07T05:43:02;9.38;;;4.55;;
55417;SDS011;41287;47.554;7.844;2023-09-07T05:45:35;9.93;;;4.38;;
55417;SDS011;41287;47.554;7.844;2023-09-07T05:48:02;11.23;;;3.70;;
55417;SDS011;41287;47.554;7.844;2023-09-07T05:50:28;6.95;;;3.92;;
55417;SDS011;41287;47.554;7.844;2023-09-07T05:52:53;8.20;;;3.72;;
55417;SDS011;41287;47.554;7.844;2023-09-07T05:55:19;9.43;;;4.30;;
55417;SDS011;41287;47.554;7.844;2023-09-07T05:57:44;6.72;;;4.00;;
55417;SDS011;41287;47.554;7.844;2023-09-07T06:00:12;8.02;;;4.35;;
55417;SDS011;41287;47.554;7.844;2023-09-07T06:02:38;7.13;;;3.70;;
55417;SDS011;41287;47.554;7.844;2023-09-07T06:05:04;6.47;;;3.95;;
55417;SDS011;41287;47.554;7.844;2023-09-07T06:07:30;6.65;;;3.90;;
55417;SDS011;41287;47.554;7.844;2023-09-07T06:09:55;6.22;;;4.05;;
55417;SDS011;41287;47.554;7.844;2023-09-07T06:12:23;6.70;;;3.70;;
55417;SDS011;41287;47.554;7.844;2023-09-07T06:14:49;6.53;;;4.00;;
55417;SDS011;41287;47.554;7.844;2023-09-07T06:17:14;6.17;;;4.23;;
55417;SDS011;41287;47.554;7.844;2023-09-07T06:19:39;7.83;;;4.03;;
55417;SDS011;41287;47.554;7.844;2023-09-07T06:22:05;6.45;;;3.67;;
55417;SDS011;41287;47.554;7.844;2023-09-07T06:24:30;6.57;;;4.03;;
55417;SDS011;41287;47.554;7.844;2023-09-07T06:26:55;6.63;;;3.90;;
55417;SDS011;41287;47.554;7.844;2023-09-07T06:29:22;5.28;;;3.95;;
55417;SDS011;41287;47.554;7.844;2023-09-07T06:31:48;6.05;;;3.40;;
55417;SDS011;41287;47.554;7.844;2023-09-07T06:34:15;6.13;;;3.25;;
55417;SDS011;41287;47.554;7.844;2023-09-07T06:36:40;5.95;;;3.70;;
55417;SDS011;41287;47.554;7.844;2023-09-07T06:39:06;7.15;;;3.95;;
55417;SDS011;41287;47.554;7.844;2023-09-07T06:41:31;5.07;;;3.30;;
55417;SDS011;41287;47.554;7.844;2023-09-07T06:43:56;7.07;;;3.70;;
55417;SDS011;41287;47.554;7.844;2023-09-07T06:46:23;5.57;;;3.50;;
55417;SDS011;41287;47.554;7.844;2023-09-07T06:48:49;6.28;;;3.72;;
55417;SDS011;41287;47.554;7.844;2023-09-07T06:51:14;7.20;;;3.70;;
55417;SDS011;41287;47.554;7.844;2023-09-07T06:53:39;6.47;;;3.70;;
55417;SDS011;41287;47.554;7.844;2023-09-07T06:56:06;7.07;;;3.60;;
55417;SDS011;41287;47.554;7.844;2023-09-07T06:58:31;5.13;;;3.35;;
55417;SDS011;41287;47.554;7.844;2023-09-07T07:00:59;4.95;;;3.47;;
55417;SDS011;41287;47.554;7.844;2023-09-07T07:03:26;6.18;;;3.90;;
55417;SDS011;41287;47.554;7.844;2023-09-07T07:05:52;5.78;;;3.30;;
55417;SDS011;41287;47.554;7.844;2023-09-07T07:08:20;5.28;;;3.40;;
55417;SDS011;41287;47.554;7.844;2023-09-07T07:10:45;6.00;;;3.67;;
55417;SDS011;41287;47.554;7.844;2023-09-07T07:13:10;4.88;;;3.70;;
55417;SDS011;41287;47.554;7.844;2023-09-07T07:15:36;5.75;;;3.55;;
55417;SDS011;41287;47.554;7.844;2023-09-07T07:18:02;4.15;;;3.22;;
55417;SDS011;41287;47.554;7.844;2023-09-07T07:20:33;4.97;;;3.28;;
55417;SDS011;41287;47.554;7.844;2023-09-07T07:23:02;4.05;;;3.05;;
55417;SDS011;41287;47.554;7.844;2023-09-07T07:25:27;6.07;;;3.40;;
55417;SDS011;41287;47.554;7.844;2023-09-07T07:27:56;4.35;;;3.08;;
55417;SDS011;41287;47.554;7.844;2023-09-07T07:30:22;5.82;;;3.50;;
55417;SDS011;41287;47.554;7.844;2023-09-07T07:32:47;5.40;;;3.67;;
55417;SDS011;41287;47.554;7.844;2023-09-07T07:35:12;5.43;;;3.60;;
55417;SDS011;41287;47.554;7.844;2023-09-07T07:37:39;5.50;;;3.53;;
55417;SDS011;41287;47.554;7.844;2023-09-07T07:40:06;4.95;;;3.30;;
55417;SDS011;41287;47.554;7.844;2023-09-07T07:42:32;7.50;;;3.40;;
55417;SDS011;41287;47.554;7.844;2023-09-07T07:44:57;4.50;;;3.10;;
55417;SDS011;41287;47.554;7.844;2023-09-07T07:47:22;4.90;;;3.40;;
55417;SDS011;41287;47.554;7.844;2023-09-07T07:49:51;4.70;;;3.28;;
55417;SDS011;41287;47.554;7.844;2023-09-07T07:52:16;4.53;;;3.17;;
55417;SDS011;41287;47.554;7.844;2023-09-07T07:54:42;5.93;;;3.47;;
55417;SDS011;41287;47.554;7.844;2023-09-07T07:57:07;6.03;;;3.23;;
55417;SDS011;41287;47.554;7.844;2023-09-07T07:59:35;6.38;;;3.72;;
55417;SDS011;41287;47.554;7.844;2023-09-07T08:02:01;4.95;;;3.35;;
55417;SDS011;41287;47.554;7.844;2023-09-07T08:04:26;5.10;;;3.55;;
55417;SDS011;41287;47.554;7.844;2023-09-07T08:06:52;5.63;;;3.38;;
55417;SDS011;41287;47.554;7.844;2023-09-07T08:09:22;5.35;;;3.47;;
55417;SDS011;41287;47.554;7.844;2023-09-07T08:11:47;4.63;;;2.97;;
55417;SDS011;41287;47.554;7.844;2023-09-07T08:14:12;4.85;;;3.28;;
55417;SDS011;41287;47.554;7.844;2023-09-07T08:16:38;4.28;;;2.78;;
55417;SDS011;41287;47.554;7.844;2023-09-07T08:19:03;5.67;;;3.67;;
55417;SDS011;41287;47.554;7.844;2023-09-07T08:21:29;5.82;;;3.42;;
55417;SDS011;41287;47.554;7.844;2023-09-07T08:23:54;4.88;;;3.38;;
55417;SDS011;41287;47.554;7.844;2023-09-07T08:26:19;5.67;;;3.47;;
55417;SDS011;41287;47.554;7.844;2023-09-07T08:28:45;4.40;;;3.13;;
55417;SDS011;41287;47.554;7.844;2023-09-07T08:31:11;3.95;;;3.00;;
55417;SDS011;41287;47.554;7.844;2023-09-07T08:33:38;4.57;;;3.40;;
55417;SDS011;41287;47.554;7.844;2023-09-07T08:36:05;3.72;;;2.90;;
55417;SDS011;41287;47.554;7.844;2023-09-07T08:38:31;4.30;;;3.17;;
55417;SDS011;41287;47.554;7.844;2023-09-07T08:40:59;5.50;;;3.17;;
55417;SDS011;41287;47.554;7.844;2023-09-07T08:43:26;5.20;;;3.33;;
55417;SDS011;41287;47.554;7.844;2023-09-07T08:46:04;5.47;;;3.58;;
55417;SDS011;41287;47.554;7.844;2023-09-07T08:48:39;6.00;;;3.28;;
55417;SDS011;41287;47.554;7.844;2023-09-07T08:51:07;4.07;;;2.80;;
55417;SDS011;41287;47.554;7.844;2023-09-07T08:53:32;4.70;;;3.20;;
55417;SDS011;41287;47.554;7.844;2023-09-07T08:56:02;5.30;;;3.15;;
55417;SDS011;41287;47.554;7.844;2023-09-07T08:58:28;4.07;;;2.88;;
55417;SDS011;41287;47.554;7.844;2023-09-07T09:00:53;3.88;;;2.90;;
55417;SDS011;41287;47.554;7.844;2023-09-07T09:03:22;3.95;;;3.00;;
55417;SDS011;41287;47.554;7.844;2023-09-07T09:05:50;6.10;;;3.20;;
55417;SDS011;41287;47.554;7.844;2023-09-07T09:08:16;4.15;;;2.83;;
55417;SDS011;41287;47.554;7.844;2023-09-07T09:10:45;4.43;;;3.20;;
55417;SDS011;41287;47.554;7.844;2023-09-07T09:13:10;4.13;;;2.95;;
55417;SDS011;41287;47.554;7.844;2023-09-07T09:15:36;4.15;;;2.83;;
55417;SDS011;41287;47.554;7.844;2023-09-07T09:18:11;3.47;;;2.60;;
55417;SDS011;41287;47.554;7.844;2023-09-07T09:20:38;3.63;;;2.65;;
55417;SDS011;41287;47.554;7.844;2023-09-07T09:23:04;4.25;;;3.20;;
55417;SDS011;41287;47.554;7.844;2023-09-07T09:25:30;4.68;;;3.33;;
55417;SDS011;41287;47.554;7.844;2023-09-07T09:27:56;5.47;;;3.40;;
55417;SDS011;41287;47.554;7.844;2023-09-07T09:30:21;4.15;;;2.85;;
55417;SDS011;41287;47.554;7.844;2023-09-07T09:32:50;4.45;;;2.72;;
55417;SDS011;41287;47.554;7.844;2023-09-07T09:35:16;3.63;;;2.80;;
55417;SDS011;41287;47.554;7.844;2023-09-07T09:37:43;3.95;;;2.95;;
55417;SDS011;41287;47.554;7.844;2023-09-07T09:40:09;5.15;;;3.30;;
55417;SDS011;41287;47.554;7.844;2023-09-07T09:42:36;4.38;;;3.33;;
55417;SDS011;41287;47.554;7.844;2023-09-07T09:45:03;4.80;;;2.90;;
55417;SDS011;41287;47.554;7.844;2023-09-07T09:47:30;4.75;;;3.20;;
55417;SDS011;41287;47.554;7.844;2023-09-07T09:49:56;5.65;;;3.05;;
55417;SDS011;41287;47.554;7.844;2023-09-07T09:52:23;4.75;;;2.95;;
55417;SDS011;41287;47.554;7.844;2023-09-07T09:54:49;4.68;;;2.92;;
55417;SDS011;41287;47.554;7.844;2023-09-07T09:57:16;5.15;;;3.33;;
55417;SDS011;41287;47.554;7.844;2023-09-07T09:59:41;4.70;;;3.33;;
55417;SDS011;41287;47.554;7.844;2023-09-07T10:02:09;5.13;;;3.35;;
55417;SDS011;41287;47.554;7.844;2023-09-07T10:04:35;3.88;;;2.90;;
55417;SDS011;41287;47.554;7.844;2023-09-07T10:07:01;5.47;;;3.15;;
55417;SDS011;41287;47.554;7.844;2023-09-07T10:09:32;4.85;;;3.42;;
55417;SDS011;41287;47.554;7.844;2023-09-07T10:11:58;5.07;;;3.17;;
55417;SDS011;41287;47.554;7.844;2023-09-07T10:14:25;4.15;;;2.90;;
55417;SDS011;41287;47.554;7.844;2023-09-07T10:16:53;5.07;;;2.92;;
55417;SDS011;41287;47.554;7.844;2023-09-07T10:19:24;5.55;;;3.67;;
55417;SDS011;41287;47.554;7.844;2023-09-07T10:21:52;5.35;;;3.28;;
55417;SDS011;41287;47.554;7.844;2023-09-07T10:24:34;4.43;;;2.85;;
55417;SDS011;41287;47.554;7.844;2023-09-07T10:27:08;5.20;;;3.22;;
55417;SDS011;41287;47.554;7.844;2023-09-07T10:29:44;4.70;;;2.95;;
55417;SDS011;41287;47.554;7.844;2023-09-07T10:32:11;5.40;;;3.30;;
55417;SDS011;41287;47.554;7.844;2023-09-07T10:34:41;4.25;;;2.95;;
55417;SDS011;41287;47.554;7.844;2023-09-07T10:37:12;6.00;;;3.67;;
55417;SDS011;41287;47.554;7.844;2023-09-07T10:39:39;4.63;;;3.05;;
55417;SDS011;41287;47.554;7.844;2023-09-07T10:42:08;3.28;;;2.78;;
55417;SDS011;41287;47.554;7.844;2023-09-07T10:44:33;8.82;;;3.42;;
55417;SDS011;41287;47.554;7.844;2023-09-07T10:46:58;4.90;;;3.35;;
55417;SDS011;41287;47.554;7.844;2023-09-07T10:49:24;5.68;;;2.88;;
55417;SDS011;41287;47.554;7.844;2023-09-07T10:51:50;5.03;;;3.42;;
55417;SDS011;41287;47.554;7.844;2023-09-07T10:54:16;4.78;;;2.95;;
55417;SDS011;41287;47.554;7.844;2023-09-07T10:56:43;5.10;;;3.63;;
55417;SDS011;41287;47.554;7.844;2023-09-07T10:59:11;5.82;;;3.13;;
55417;SDS011;41287;47.554;7.844;2023-09-07T11:01:39;6.63;;;3.00;;
55417;SDS011;41287;47.554;7.844;2023-09-07T11:04:05;3.88;;;3.17;;
55417;SDS011;41287;47.554;7.844;2023-09-07T11:06:33;5.13;;;3.22;;
55417;SDS011;41287;47.554;7.844;2023-09-07T11:08:59;3.70;;;2.70;;
55417;SDS011;41287;47.554;7.844;2023-09-07T11:11:26;4.30;;;2.88;;
55417;SDS011;41287;47.554;7.844;2023-09-07T11:13:52;4.55;;;3.15;;
55417;SDS011;41287;47.554;7.844;2023-09-07T11:16:17;3.95;;;2.97;;
55417;SDS011;41287;47.554;7.844;2023-09-07T11:18:42;4.25;;;3.10;;
55417;SDS011;41287;47.554;7.844;2023-09-07T11:21:12;5.63;;;2.90;;
55417;SDS011;41287;47.554;7.844;2023-09-07T11:23:37;3.72;;;2.70;;
55417;SDS011;41287;47.554;7.844;2023-09-07T11:26:06;4.07;;;2.90;;
55417;SDS011;41287;47.554;7.844;2023-09-07T11:28:33;4.30;;;3.03;;
55417;SDS011;41287;47.554;7.844;2023-09-07T11:30:59;3.55;;;2.75;;
55417;SDS011;41287;47.554;7.844;2023-09-07T11:33:25;4.80;;;3.30;;
55417;SDS011;41287;47.554;7.844;2023-09-07T11:35:56;4.93;;;3.33;;
55417;SDS011;41287;47.554;7.844;2023-09-07T11:38:21;3.63;;;2.92;;
55417;SDS011;41287;47.554;7.844;2023-09-07T11:40:47;4.43;;;3.40;;
55417;SDS011;41287;47.554;7.844;2023-09-07T11:43:13;4.78;;;3.42;;
55417;SDS011;41287;47.554;7.844;2023-09-07T11:45:43;5.85;;;3.13;;
55417;SDS011;41287;47.554;7.844;2023-09-07T11:48:09;6.40;;;3.13;;
55417;SDS011;41287;47.554;7.844;2023-09-07T11:50:35;4.63;;;2.75;;
55417;SDS011;41287;47.554;7.844;2023-09-07T11:53:01;6.13;;;2.97;;
55417;SDS011;41287;47.554;7.844;2023-09-07T11:55:29;3.95;;;3.05;;
55417;SDS011;41287;47.554;7.844;2023-09-07T11:57:55;4.68;;;2.83;;
55417;SDS011;41287;47.554;7.844;2023-09-07T12:00:20;3.90;;;2.90;;
55417;SDS011;41287;47.554;7.844;2023-09-07T12:02:47;5.88;;;3.10;;
55417;SDS011;41287;47.554;7.844;2023-09-07T12:05:12;5.15;;;3.33;;
55417;SDS011;41287;47.554;7.844;2023-09-07T12:07:40;5.47;;;3.10;;
55417;SDS011;41287;47.554;7.844;2023-09-07T12:10:08;5.00;;;3.47;;
55417;SDS011;41287;47.554;7.844;2023-09-07T12:12:36;4.43;;;2.80;;
55417;SDS011;41287;47.554;7.844;2023-09-07T12:15:01;3.60;;;2.60;;
55417;SDS011;41287;47.554;7.844;2023-09-07T12:17:29;4.43;;;3.20;;
55417;SDS011;41287;47.554;7.844;2023-09-07T12:19:55;5.18;;;3.10;;
55417;SDS011;41287;47.554;7.844;2023-09-07T12:22:20;4.40;;;2.90;;
55417;SDS011;41287;47.554;7.844;2023-09-07T12:24:45;4.43;;;2.90;;
55417;SDS011;41287;47.554;7.844;2023-09-07T12:27:11;5.05;;;3.20;;
55417;SDS011;41287;47.554;7.844;2023-09-07T12:29:36;6.55;;;2.83;;
55417;SDS011;41287;47.554;7.844;2023-09-07T12:32:06;4.88;;;3.25;;
55417;SDS011;41287;47.554;7.844;2023-09-07T12:34:31;4.25;;;2.97;;
55417;SDS011;41287;47.554;7.844;2023-09-07T12:36:56;7.00;;;3.40;;
55417;SDS011;41287;47.554;7.844;2023-09-07T12:39:22;5.93;;;3.53;;
55417;SDS011;41287;47.554;7.844;2023-09-07T12:41:47;5.82;;;3.28;;
55417;SDS011;41287;47.554;7.844;2023-09-07T12:44:16;5.65;;;3.47;;
55417;SDS011;41287;47.554;7.844;2023-09-07T12:46:43;5.97;;;3.78;;
55417;SDS011;41287;47.554;7.844;2023-09-07T12:49:09;6.93;;;3.47;;
55417;SDS011;41287;47.554;7.844;2023-09-07T12:51:34;4.30;;;3.15;;
55417;SDS011;41287;47.554;7.844;2023-09-07T12:53:59;5.50;;;3.23;;
55417;SDS011;41287;47.554;7.844;2023-09-07T12:56:25;5.60;;;3.65;;
55417;SDS011;41287;47.554;7.844;2023-09-07T12:58:50;5.57;;;3.03;;
55417;SDS011;41287;47.554;7.844;2023-09-07T13:01:17;7.93;;;3.72;;
55417;SDS011;41287;47.554;7.844;2023-09-07T13:03:43;5.55;;;3.30;;
55417;SDS011;41287;47.554;7.844;2023-09-07T13:06:08;5.28;;;3.40;;
55417;SDS011;41287;47.554;7.844;2023-09-07T13:08:34;4.95;;;3.13;;
55417;SDS011;41287;47.554;7.844;2023-09-07T13:11:00;6.82;;;3.45;;
55417;SDS011;41287;47.554;7.844;2023-09-07T13:13:25;6.82;;;3.28;;
55417;SDS011;41287;47.554;7.844;2023-09-07T13:15:53;6.55;;;3.47;;
55417;SDS011;41287;47.554;7.844;2023-09-07T13:18:26;5.77;;;3.77;;
55417;SDS011;41287;47.554;7.844;2023-09-07T13:20:51;5.97;;;3.65;;
55417;SDS011;41287;47.554;7.844;2023-09-07T13:23:19;7.13;;;3.70;;
55417;SDS011;41287;47.554;7.844;2023-09-07T13:25:45;6.10;;;3.35;;
55417;SDS011;41287;47.554;7.844;2023-09-07T13:28:12;5.07;;;3.55;;
55417;SDS011;41287;47.554;7.844;2023-09-07T13:30:38;4.78;;;3.40;;
55417;SDS011;41287;47.554;7.844;2023-09-07T13:33:03;6.28;;;3.40;;
55417;SDS011;41287;47.554;7.844;2023-09-07T13:35:28;5.25;;;3.35;;
55417;SDS011;41287;47.554;7.844;2023-09-07T13:37:54;4.57;;;3.30;;
55417;SDS011;41287;47.554;7.844;2023-09-07T13:40:24;5.50;;;3.17;;
55417;SDS011;41287;47.554;7.844;2023-09-07T13:42:54;5.00;;;3.17;;
55417;SDS011;41287;47.554;7.844;2023-09-07T13:45:19;6.25;;;3.75;;
55417;SDS011;41287;47.554;7.844;2023-09-07T13:47:45;7.93;;;4.10;;
55417;SDS011;41287;47.554;7.844;2023-09-07T13:50:11;5.65;;;3.70;;
55417;SDS011;41287;47.554;7.844;2023-09-07T13:52:36;6.45;;;3.70;;
55417;SDS011;41287;47.554;7.844;2023-09-07T13:55:02;7.50;;;3.70;;
55417;SDS011;41287;47.554;7.844;2023-09-07T13:57:27;5.15;;;3.33;;
55417;SDS011;41287;47.554;7.844;2023-09-07T13:59:53;5.25;;;3.65;;
55417;SDS011;41287;47.554;7.844;2023-09-07T14:02:18;5.10;;;3.30;;
55417;SDS011;41287;47.554;7.844;2023-09-07T14:04:43;5.93;;;3.37;;
55417;SDS011;41287;47.554;7.844;2023-09-07T14:07:10;7.57;;;3.92;;
55417;SDS011;41287;47.554;7.844;2023-09-07T14:09:36;5.80;;;3.90;;
55417;SDS011;41287;47.554;7.844;2023-09-07T14:12:01;7.03;;;3.95;;
55417;SDS011;41287;47.554;7.844;2023-09-07T14:14:27;6.50;;;4.05;;
55417;SDS011;41287;47.554;7.844;2023-09-07T14:16:53;5.93;;;3.58;;
55417;SDS011;41287;47.554;7.844;2023-09-07T14:19:21;6.13;;;3.55;;
55417;SDS011;41287;47.554;7.844;2023-09-07T14:21:47;6.30;;;4.28;;
55417;SDS011;41287;47.554;7.844;2023-09-07T14:24:12;6.55;;;3.65;;
55417;SDS011;41287;47.554;7.844;2023-09-07T14:26:37;6.20;;;3.73;;
55417;SDS011;41287;47.554;7.844;2023-09-07T14:29:05;7.78;;;4.10;;
55417;SDS011;41287;47.554;7.844;2023-09-07T14:31:30;7.47;;;4.28;;
55417;SDS011;41287;47.554;7.844;2023-09-07T14:33:55;6.88;;;3.63;;
55417;SDS011;41287;47.554;7.844;2023-09-07T14:36:21;6.35;;;3.67;;
55417;SDS011;41287;47.554;7.844;2023-09-07T14:38:46;5.55;;;3.55;;
55417;SDS011;41287;47.554;7.844;2023-09-07T14:41:12;5.03;;;3.50;;
55417;SDS011;41287;47.554;7.844;2023-09-07T14:43:43;5.03;;;3.63;;